createdAt,value
2018-08-19T00:02:21.988Z,8.57
2018-08-19T00:05:05.472Z,7.63
2018-08-19T00:07:34.779Z,8.03
2018-08-19T00:10:04.607Z,7.47
2018-08-19T00:12:39.705Z,7.83
2018-08-19T00:15:09.030Z,7.57
2018-08-19T00:17:38.275Z,8.13
2018-08-19T00:20:09.519Z,8.27
2018-08-19T00:22:38.791Z,7.97
2018-08-19T00:25:08.736Z,8.30
2018-08-19T00:27:38.752Z,8.13
2018-08-19T00:30:09.300Z,8.13
2018-08-19T00:32:38.495Z,7.93
2018-08-19T00:35:08.112Z,7.63
2018-08-19T00:37:37.312Z,7.60
2018-08-19T00:40:11.836Z,7.53
2018-08-19T00:42:43.540Z,7.70
2018-08-19T00:45:12.934Z,7.43
2018-08-19T00:47:42.161Z,7.73
2018-08-19T00:50:11.546Z,7.30
2018-08-19T00:52:40.788Z,7.03
2018-08-19T00:55:10.432Z,7.50
2018-08-19T00:57:41.215Z,7.40
2018-08-19T01:00:10.407Z,7.63
2018-08-19T01:02:39.657Z,7.07
2018-08-19T01:05:08.911Z,7.93
2018-08-19T01:07:38.315Z,7.37
2018-08-19T01:10:08.123Z,8.20
2018-08-19T01:12:38.034Z,7.63
2018-08-19T01:15:12.396Z,7.53
2018-08-19T01:17:44.266Z,7.70
2018-08-19T01:20:22.375Z,8.27
2018-08-19T01:22:51.668Z,7.83
2018-08-19T01:25:20.815Z,7.97
2018-08-19T01:27:50.469Z,8.03
2018-08-19T01:30:22.090Z,8.33
2018-08-19T01:32:51.289Z,7.80
2018-08-19T01:35:53.893Z,8.40
2018-08-19T01:38:23.073Z,7.67
2018-08-19T01:40:52.238Z,8.57
2018-08-19T01:43:21.420Z,8.30
2018-08-19T01:45:51.843Z,8.60
2018-08-19T01:48:21.040Z,8.43
2018-08-19T01:50:50.238Z,9.07
2018-08-19T01:53:19.384Z,8.93
2018-08-19T01:55:48.686Z,8.53
2018-08-19T01:58:17.820Z,8.90
2018-08-19T02:00:46.984Z,8.47
2018-08-19T02:03:16.201Z,8.60
2018-08-19T02:05:45.411Z,10.10
2018-08-19T02:08:14.611Z,8.90
2018-08-19T02:10:43.923Z,8.63
2018-08-19T02:13:13.104Z,9.00
2018-08-19T02:15:42.250Z,9.50
2018-08-19T02:18:11.518Z,8.80
2018-08-19T02:20:42.005Z,9.57
2018-08-19T02:23:12.388Z,9.57
2018-08-19T02:25:46.405Z,9.83
2018-08-19T02:28:20.321Z,9.40
2018-08-19T02:30:54.951Z,10.00
2018-08-19T02:33:24.255Z,9.77
2018-08-19T02:36:01.798Z,9.67
2018-08-19T02:38:31.253Z,10.30
2018-08-19T02:41:00.487Z,10.10
2018-08-19T02:43:30.415Z,10.30
2018-08-19T02:45:59.706Z,9.97
2018-08-19T02:49:01.991Z,9.77
2018-08-19T02:51:31.314Z,10.17
2018-08-19T02:54:00.502Z,10.63
2018-08-19T02:56:29.627Z,10.30
2018-08-19T02:58:58.934Z,11.00
2018-08-19T03:01:28.099Z,10.30
2018-08-19T03:03:58.339Z,9.97
2018-08-19T03:06:27.555Z,11.03
2018-08-19T03:08:58.749Z,10.80
2018-08-19T03:11:28.251Z,10.73
2018-08-19T03:13:57.644Z,11.07
2018-08-19T03:16:26.802Z,11.63
2018-08-19T03:18:56.011Z,11.67
2018-08-19T03:21:25.212Z,11.57
2018-08-19T03:23:54.584Z,10.90
2018-08-19T03:26:23.798Z,11.40
2018-08-19T03:28:52.971Z,11.50
2018-08-19T03:31:22.166Z,11.77
2018-08-19T03:33:51.283Z,11.40
2018-08-19T03:36:20.532Z,11.40
2018-08-19T03:38:49.816Z,12.43
2018-08-19T03:41:19.021Z,11.97
2018-08-19T03:43:53.332Z,12.70
2018-08-19T03:46:22.562Z,11.87
2018-08-19T03:48:51.835Z,11.20
2018-08-19T03:51:20.948Z,12.67
2018-08-19T03:53:50.272Z,12.53
2018-08-19T03:56:24.860Z,12.77
2018-08-19T03:58:57.455Z,13.23
2018-08-19T04:01:40.742Z,13.23
2018-08-19T04:04:10.574Z,13.47
2018-08-19T04:06:40.580Z,14.60
2018-08-19T04:09:09.839Z,14.07
2018-08-19T04:11:39.088Z,13.07
2018-08-19T04:14:25.678Z,13.67
2018-08-19T04:16:55.979Z,13.83
2018-08-19T04:19:25.865Z,13.83
2018-08-19T04:22:00.111Z,14.20
2018-08-19T04:24:29.764Z,14.43
2018-08-19T04:26:59.341Z,13.80
2018-08-19T04:29:28.840Z,13.93
2018-08-19T04:32:00.852Z,14.10
2018-08-19T04:34:30.165Z,13.77
2018-08-19T04:36:59.379Z,13.67
2018-08-19T04:39:28.604Z,14.23
2018-08-19T04:41:58.117Z,13.80
2018-08-19T04:44:28.824Z,13.73
2018-08-19T04:46:58.145Z,13.27
2018-08-19T04:49:27.328Z,13.40
2018-08-19T04:51:56.496Z,13.70
2018-08-19T04:54:25.670Z,14.50
2018-08-19T04:56:54.916Z,13.53
2018-08-19T04:59:24.235Z,13.77
2018-08-19T05:01:55.148Z,13.23
2018-08-19T05:04:24.320Z,13.50
2018-08-19T05:06:53.923Z,13.50
2018-08-19T05:09:23.123Z,14.20
2018-08-19T05:11:59.539Z,13.60
2018-08-19T05:14:28.730Z,13.30
2018-08-19T05:16:58.024Z,13.63
2018-08-19T05:19:27.204Z,13.80
2018-08-19T05:22:00.625Z,13.37
2018-08-19T05:24:29.882Z,13.33
2018-08-19T05:27:03.298Z,13.80
2018-08-19T05:29:32.470Z,13.63
2018-08-19T05:32:01.775Z,14.40
2018-08-19T05:34:32.046Z,13.43
2018-08-19T05:37:01.581Z,14.67
2018-08-19T05:39:30.865Z,13.80
2018-08-19T05:42:08.347Z,14.43
2018-08-19T05:44:38.630Z,14.30
2018-08-19T05:47:09.941Z,14.57
2018-08-19T05:49:40.417Z,14.20
2018-08-19T05:52:15.062Z,14.97
2018-08-19T05:54:50.386Z,13.47
2018-08-19T05:57:19.671Z,14.70
2018-08-19T05:59:50.190Z,15.10
2018-08-19T06:02:53.370Z,14.17
2018-08-19T06:05:22.632Z,14.63
2018-08-19T06:08:01.744Z,14.23
2018-08-19T06:10:30.970Z,14.43
2018-08-19T06:13:00.166Z,14.37
2018-08-19T06:15:29.485Z,13.67
2018-08-19T06:17:58.870Z,14.40
2018-08-19T06:20:30.236Z,13.30
2018-08-19T06:22:59.493Z,14.07
2018-08-19T06:25:28.760Z,14.27
2018-08-19T06:27:58.798Z,14.33
2018-08-19T06:30:28.091Z,14.17
2018-08-19T06:32:57.343Z,13.43
2018-08-19T06:35:26.581Z,13.70
2018-08-19T06:37:55.848Z,13.00
2018-08-19T06:40:25.042Z,13.07
2018-08-19T06:42:54.276Z,12.73
2018-08-19T06:45:23.453Z,13.43
2018-08-19T06:47:52.673Z,13.27
2018-08-19T06:50:31.621Z,12.10
2018-08-19T06:53:00.863Z,12.53
2018-08-19T06:55:30.161Z,12.50
2018-08-19T06:58:00.253Z,12.23
2018-08-19T07:00:30.344Z,11.90
2018-08-19T07:03:03.632Z,11.00
2018-08-19T07:05:36.070Z,11.10
2018-08-19T07:08:05.395Z,11.17
2018-08-19T07:10:39.776Z,10.63
2018-08-19T07:13:11.178Z,11.00
2018-08-19T07:15:41.602Z,10.03
2018-08-19T07:18:13.068Z,10.57
2018-08-19T07:20:42.992Z,9.60
2018-08-19T07:23:13.026Z,10.47
2018-08-19T07:25:44.142Z,10.37
2018-08-19T07:28:14.681Z,10.83
2018-08-19T07:30:44.181Z,9.73
2018-08-19T07:33:13.798Z,11.33
2018-08-19T07:35:42.992Z,10.70
2018-08-19T07:38:12.201Z,10.57
2018-08-19T07:40:41.378Z,10.40
2018-08-19T07:43:10.763Z,10.90
2018-08-19T07:45:39.900Z,10.53
2018-08-19T07:48:09.161Z,10.80
2018-08-19T07:50:38.323Z,10.50
2018-08-19T07:53:07.525Z,11.00
2018-08-19T07:55:36.735Z,10.80
2018-08-19T07:58:06.362Z,10.90
2018-08-19T08:00:41.444Z,10.93
2018-08-19T08:03:10.672Z,10.60
2018-08-19T08:05:45.235Z,10.33
2018-08-19T08:08:14.449Z,10.13
2018-08-19T08:10:43.723Z,9.40
2018-08-19T08:13:13.660Z,9.13
2018-08-19T08:15:48.321Z,9.43
2018-08-19T08:18:17.540Z,10.03
2018-08-19T08:20:46.952Z,9.47
2018-08-19T08:23:22.198Z,8.90
2018-08-19T08:25:51.704Z,9.20
2018-08-19T08:28:21.141Z,9.27
2018-08-19T08:30:50.418Z,9.43
2018-08-19T08:33:20.434Z,10.00
2018-08-19T08:35:56.204Z,9.40
2018-08-19T08:38:25.433Z,9.20
2018-08-19T08:40:54.907Z,9.63
2018-08-19T08:43:24.129Z,9.07
2018-08-19T08:45:56.023Z,9.60
2018-08-19T08:48:25.258Z,9.57
2018-08-19T08:50:54.685Z,9.60
2018-08-19T08:53:27.057Z,9.57
2018-08-19T08:55:56.411Z,9.60
2018-08-19T08:58:25.638Z,9.37
2018-08-19T09:00:54.845Z,9.30
2018-08-19T09:03:24.188Z,9.63
2018-08-19T09:05:53.632Z,9.37
2018-08-19T09:08:22.873Z,10.50
2018-08-19T09:10:52.430Z,10.27
2018-08-19T09:13:21.611Z,10.33
2018-08-19T09:15:50.963Z,9.87
2018-08-19T09:18:20.154Z,9.87
2018-08-19T09:20:49.422Z,9.53
2018-08-19T09:23:18.758Z,9.70
2018-08-19T09:25:47.874Z,10.77
2018-08-19T09:28:17.077Z,10.43
2018-08-19T09:30:46.989Z,10.43
2018-08-19T09:33:16.327Z,10.83
2018-08-19T09:35:47.386Z,10.47
2018-08-19T09:38:19.753Z,10.07
2018-08-19T09:40:49.156Z,10.00
2018-08-19T09:43:18.700Z,9.87
2018-08-19T09:45:49.098Z,9.93
2018-08-19T09:48:18.641Z,10.93
2018-08-19T09:50:47.924Z,10.50
2018-08-19T09:53:17.119Z,10.17
2018-08-19T09:55:52.250Z,10.17
2018-08-19T09:58:22.353Z,10.87
2018-08-19T10:00:56.858Z,10.20
2018-08-19T10:03:26.063Z,10.87
2018-08-19T10:05:55.299Z,10.50
2018-08-19T10:08:24.817Z,10.57
2018-08-19T10:10:54.020Z,10.87
2018-08-19T10:13:23.503Z,11.47
2018-08-19T10:15:53.006Z,11.47
2018-08-19T10:18:22.173Z,10.27
2018-08-19T10:20:51.368Z,10.43
2018-08-19T10:23:24.517Z,10.67
2018-08-19T10:25:54.225Z,10.40
2018-08-19T10:28:23.436Z,9.53
2018-08-19T10:30:58.364Z,10.10
2018-08-19T10:33:27.705Z,10.87
2018-08-19T10:35:59.389Z,10.07
2018-08-19T10:38:29.517Z,9.87
2018-08-19T10:41:05.319Z,9.33
2018-08-19T10:43:34.813Z,9.57
2018-08-19T10:46:04.784Z,9.47
2018-08-19T10:48:34.049Z,9.97
2018-08-19T10:51:03.528Z,10.40
2018-08-19T10:53:32.816Z,9.63
2018-08-19T10:56:03.077Z,9.50
2018-08-19T10:58:32.383Z,10.33
2018-08-19T11:01:01.840Z,10.63
2018-08-19T11:03:31.024Z,9.70
2018-08-19T11:06:00.285Z,9.47
2018-08-19T11:08:29.554Z,10.20
2018-08-19T11:10:59.938Z,10.63
2018-08-19T11:13:29.205Z,10.57
2018-08-19T11:15:59.148Z,10.60
2018-08-19T11:18:30.670Z,10.03
2018-08-19T11:21:07.542Z,10.07
2018-08-19T11:23:37.733Z,9.70
2018-08-19T11:26:07.397Z,10.00
2018-08-19T11:28:38.793Z,10.17
2018-08-19T11:31:16.568Z,10.90
2018-08-19T11:33:55.927Z,10.27
2018-08-19T11:36:57.153Z,9.77
2018-08-19T11:39:31.745Z,9.80
2018-08-19T11:42:00.939Z,9.80
2018-08-19T11:44:30.138Z,10.03
2018-08-19T11:46:59.327Z,10.13
2018-08-19T11:49:28.499Z,10.47
2018-08-19T11:52:02.941Z,9.60
2018-08-19T11:54:33.043Z,9.47
2018-08-19T11:57:05.722Z,9.97
2018-08-19T11:59:45.030Z,9.77
2018-08-19T12:02:20.167Z,9.80
2018-08-19T12:04:49.372Z,10.07
2018-08-19T12:07:19.093Z,8.97
2018-08-19T12:09:57.192Z,10.30
2018-08-19T12:12:44.763Z,9.13
2018-08-19T12:15:14.552Z,9.87
2018-08-19T12:17:44.100Z,9.80
2018-08-19T12:20:13.501Z,10.13
2018-08-19T12:22:43.482Z,9.93
2018-08-19T12:25:12.667Z,9.97
2018-08-19T12:27:41.985Z,9.03
2018-08-19T12:30:15.543Z,9.00
2018-08-19T12:32:45.807Z,9.30
2018-08-19T12:35:14.962Z,9.13
2018-08-19T12:37:44.199Z,9.43
2018-08-19T12:40:13.374Z,8.80
2018-08-19T12:42:47.847Z,8.77
2018-08-19T12:45:17.118Z,8.67
2018-08-19T12:47:46.354Z,9.17
2018-08-19T12:50:16.313Z,8.57
2018-08-19T12:52:45.430Z,9.00
2018-08-19T12:55:16.035Z,8.30
2018-08-19T12:57:45.839Z,9.10
2018-08-19T13:00:18.378Z,9.17
2018-08-19T13:02:49.351Z,9.60
2018-08-19T13:05:19.224Z,9.23
2018-08-19T13:07:49.605Z,9.77
2018-08-19T13:10:19.192Z,9.13
2018-08-19T13:12:51.824Z,8.90
2018-08-19T13:15:21.349Z,8.33
2018-08-19T13:17:50.817Z,8.77
2018-08-19T13:20:20.156Z,9.13
2018-08-19T13:22:54.934Z,8.90
2018-08-19T13:25:25.020Z,9.83
2018-08-19T13:27:54.249Z,8.90
2018-08-19T13:30:23.627Z,8.93
2018-08-19T13:32:53.221Z,9.60
2018-08-19T13:35:23.047Z,9.20
2018-08-19T13:37:52.557Z,9.30
2018-08-19T13:40:21.963Z,9.73
2018-08-19T13:42:51.306Z,8.70
2018-08-19T13:45:22.000Z,9.30
2018-08-19T13:47:53.334Z,9.93
2018-08-19T13:50:22.597Z,9.87
2018-08-19T13:52:53.211Z,10.43
2018-08-19T13:55:22.744Z,10.07
2018-08-19T13:57:52.146Z,10.00
2018-08-19T14:00:23.215Z,10.67
2018-08-19T14:02:52.828Z,10.83
2018-08-19T14:05:22.039Z,11.43
2018-08-19T14:07:51.244Z,11.50
2018-08-19T14:10:20.474Z,12.17
2018-08-19T14:12:50.039Z,12.27
2018-08-19T14:15:19.324Z,13.73
2018-08-19T14:17:49.089Z,13.50
2018-08-19T14:20:18.759Z,13.17
2018-08-19T14:22:48.143Z,14.67
2018-08-19T14:25:17.597Z,14.90
2018-08-19T14:27:47.309Z,15.53
2018-08-19T14:30:17.120Z,16.20
2018-08-19T14:32:48.384Z,15.60
2018-08-19T14:35:18.299Z,15.87
2018-08-19T14:37:47.659Z,15.87
2018-08-19T14:40:18.356Z,16.23
2018-08-19T14:42:47.735Z,15.70
2018-08-19T14:45:18.216Z,15.90
2018-08-19T14:47:48.699Z,14.83
2018-08-19T14:50:19.512Z,13.90
2018-08-19T14:52:49.103Z,13.33
2018-08-19T14:55:18.326Z,15.07
2018-08-19T14:57:48.330Z,15.27
2018-08-19T15:00:18.249Z,14.23
2018-08-19T15:02:47.484Z,15.07
2018-08-19T15:05:18.284Z,14.60
2018-08-19T15:07:49.678Z,15.20
2018-08-19T15:10:20.964Z,14.60
2018-08-19T15:12:50.277Z,15.00
2018-08-19T15:15:19.735Z,15.37
2018-08-19T15:17:54.879Z,15.17
2018-08-19T15:20:29.479Z,14.50
2018-08-19T15:23:09.891Z,14.80
2018-08-19T15:25:39.136Z,15.20
2018-08-19T15:28:08.418Z,14.57
2018-08-19T15:30:40.598Z,14.07
2018-08-19T15:33:11.122Z,13.93
2018-08-19T15:35:40.916Z,14.87
2018-08-19T15:38:10.540Z,14.30
2018-08-19T15:40:47.057Z,14.43
2018-08-19T15:43:16.311Z,14.60
2018-08-19T15:45:46.388Z,14.00
2018-08-19T15:48:15.707Z,15.17
2018-08-19T15:50:45.163Z,14.53
2018-08-19T15:53:14.437Z,14.13
2018-08-19T15:55:45.571Z,13.50
2018-08-19T15:58:15.095Z,13.73
2018-08-19T16:00:44.916Z,13.67
2018-08-19T16:03:14.093Z,14.37
2018-08-19T16:05:43.351Z,13.63
2018-08-19T16:08:12.562Z,13.77
2018-08-19T16:10:42.418Z,14.07
2018-08-19T16:13:14.588Z,13.47
2018-08-19T16:15:44.414Z,12.73
2018-08-19T16:18:14.500Z,13.10
2018-08-19T16:20:47.901Z,13.80
2018-08-19T16:23:17.778Z,12.97
2018-08-19T16:25:47.668Z,12.93
2018-08-19T16:28:17.251Z,13.30
2018-08-19T16:30:47.356Z,13.13
2018-08-19T16:33:16.814Z,12.60
2018-08-19T16:35:49.272Z,12.20
2018-08-19T16:38:18.503Z,11.53
2018-08-19T16:40:48.207Z,11.13
2018-08-19T16:43:17.496Z,11.43
2018-08-19T16:45:47.871Z,12.03
2018-08-19T16:48:17.187Z,12.57
2018-08-19T16:50:46.907Z,11.90
2018-08-19T16:53:15.978Z,11.73
2018-08-19T16:55:45.574Z,12.23
2018-08-19T16:58:14.828Z,12.10
2018-08-19T17:00:44.748Z,12.83
2018-08-19T17:03:26.074Z,13.87
2018-08-19T17:05:56.522Z,14.00
2018-08-19T17:08:25.799Z,13.30
2018-08-19T17:10:55.345Z,15.13
2018-08-19T17:13:24.843Z,15.03
2018-08-19T17:15:54.583Z,14.83
2018-08-19T17:18:23.817Z,15.57
2018-08-19T17:20:53.579Z,13.80
2018-08-19T17:23:24.581Z,13.20
2018-08-19T17:25:53.920Z,13.23
2018-08-19T17:28:24.747Z,13.30
2018-08-19T17:30:54.888Z,12.93
2018-08-19T17:33:26.133Z,13.13
2018-08-19T17:35:58.330Z,12.60
2018-08-19T17:38:31.013Z,12.27
2018-08-19T17:41:00.665Z,11.93
2018-08-19T17:43:35.154Z,11.73
2018-08-19T17:46:08.344Z,12.10
2018-08-19T17:48:39.747Z,11.37
2018-08-19T17:51:21.276Z,10.57
2018-08-19T17:53:50.525Z,11.10
2018-08-19T17:56:20.879Z,10.97
2018-08-19T17:58:51.142Z,10.77
2018-08-19T18:01:21.351Z,10.90
2018-08-19T18:03:50.810Z,11.27
2018-08-19T18:06:20.250Z,11.73
2018-08-19T18:08:50.985Z,12.50
2018-08-19T18:11:21.071Z,12.63
2018-08-19T18:13:50.917Z,13.00
2018-08-19T18:16:20.711Z,12.37
2018-08-19T18:18:50.195Z,12.67
2018-08-19T18:21:19.384Z,13.70
2018-08-19T18:23:49.817Z,13.70
2018-08-19T18:26:19.257Z,13.17
2018-08-19T18:28:49.291Z,14.03
2018-08-19T18:31:21.380Z,14.03
2018-08-19T18:33:56.227Z,15.10
2018-08-19T18:36:26.957Z,15.20
2018-08-19T18:38:56.749Z,14.80
2018-08-19T18:41:40.718Z,15.87
2018-08-19T18:44:11.053Z,16.03
2018-08-19T18:46:40.710Z,14.87
2018-08-19T18:49:11.245Z,15.50
2018-08-19T18:51:42.460Z,15.87
2018-08-19T18:54:32.536Z,15.43
2018-08-19T18:57:07.770Z,16.40
2018-08-19T18:59:42.467Z,16.93
2018-08-19T19:02:11.887Z,16.10
2018-08-19T19:04:41.293Z,16.17
2018-08-19T19:07:10.565Z,15.70
2018-08-19T19:09:49.090Z,15.40
2018-08-19T19:12:22.127Z,14.80
2018-08-19T19:14:53.410Z,15.27
2018-08-19T19:17:23.656Z,14.90
2018-08-19T19:19:53.398Z,16.07
2018-08-19T19:22:23.141Z,15.57
2018-08-19T19:24:53.295Z,16.73
2018-08-19T19:27:22.826Z,17.17
2018-08-19T19:29:57.790Z,16.77
2018-08-19T19:32:27.383Z,16.40
2018-08-19T19:35:05.126Z,16.17
2018-08-19T19:37:34.740Z,17.10
2018-08-19T19:40:09.188Z,17.03
2018-08-19T19:42:38.521Z,16.87
2018-08-19T19:45:08.174Z,16.40
2018-08-19T19:47:37.458Z,16.33
2018-08-19T19:50:08.084Z,16.90
2018-08-19T19:52:41.838Z,16.60
2018-08-19T19:55:11.017Z,17.13
2018-08-19T19:57:43.262Z,17.23
2018-08-19T20:00:12.825Z,16.57
2018-08-19T20:02:42.324Z,17.03
2018-08-19T20:05:17.699Z,16.57
2018-08-19T20:07:47.343Z,17.50
2018-08-19T20:10:22.139Z,17.83
2018-08-19T20:12:51.673Z,16.43
2018-08-19T20:15:21.281Z,15.83
2018-08-19T20:17:50.464Z,16.73
2018-08-19T20:20:20.026Z,16.23
2018-08-19T20:22:49.293Z,15.90
2018-08-19T20:25:20.035Z,17.13
2018-08-19T20:27:53.992Z,17.17
2018-08-19T20:30:23.497Z,15.37
2018-08-19T20:32:53.064Z,15.97
2018-08-19T20:35:22.336Z,16.87
2018-08-19T20:37:52.559Z,15.23
2018-08-19T20:40:21.748Z,17.37
2018-08-19T20:42:51.369Z,16.77
2018-08-19T20:45:20.557Z,17.87
2018-08-19T20:47:49.927Z,18.03
2018-08-19T20:50:19.220Z,19.40
2018-08-19T20:52:49.272Z,19.07
2018-08-19T20:55:19.652Z,19.70
2018-08-19T20:57:49.132Z,20.93
2018-08-19T21:00:18.316Z,20.47
2018-08-19T21:02:47.668Z,19.33
2018-08-19T21:05:17.494Z,19.30
2018-08-19T21:07:47.502Z,20.90
2018-08-19T21:10:16.686Z,19.20
2018-08-19T21:12:45.913Z,20.03
2018-08-19T21:15:18.057Z,19.47
2018-08-19T21:17:47.334Z,20.30
2018-08-19T21:20:16.676Z,20.30
2018-08-19T21:22:45.830Z,20.97
2018-08-19T21:25:15.210Z,20.57
2018-08-19T21:27:44.401Z,18.87
2018-08-19T21:30:13.811Z,20.00
2018-08-19T21:32:42.900Z,19.97
2018-08-19T21:35:12.069Z,19.87
2018-08-19T21:37:41.335Z,20.23
2018-08-19T21:40:10.563Z,21.27
2018-08-19T21:42:48.631Z,18.47
2018-08-19T21:45:17.799Z,17.70
2018-08-19T21:47:47.290Z,17.63
2018-08-19T21:50:16.821Z,18.27
2018-08-19T21:52:59.000Z,18.67
2018-08-19T21:55:31.089Z,17.57
2018-08-19T21:58:01.238Z,17.93
2018-08-19T22:00:32.291Z,17.73
2018-08-19T22:03:06.914Z,18.30
2018-08-19T22:05:36.122Z,17.00
2018-08-19T22:08:05.582Z,17.70
2018-08-19T22:10:35.186Z,17.30
2018-08-19T22:13:05.373Z,17.10
2018-08-19T22:15:37.488Z,17.10
2018-08-19T22:18:10.247Z,17.90
2018-08-19T22:20:39.481Z,18.30
2018-08-19T22:23:08.778Z,16.90
2018-08-19T22:25:38.027Z,18.43
2018-08-19T22:28:07.203Z,17.33
2018-08-19T22:30:36.389Z,18.97
2018-08-19T22:33:05.601Z,18.43
2018-08-19T22:35:34.801Z,18.50
2018-08-19T22:38:08.212Z,18.00
2018-08-19T22:40:37.661Z,17.87
2018-08-19T22:43:08.030Z,17.70
2018-08-19T22:45:37.198Z,18.10
2018-08-19T22:48:06.416Z,18.50
2018-08-19T22:50:35.674Z,18.07
2018-08-19T22:53:05.017Z,17.67
2018-08-19T22:55:34.159Z,18.10
2018-08-19T22:58:08.785Z,17.77
2018-08-19T23:00:38.072Z,17.73
2018-08-19T23:03:07.367Z,17.87
2018-08-19T23:05:36.574Z,17.93
2018-08-19T23:08:05.921Z,17.43
2018-08-19T23:10:35.092Z,17.47
2018-08-19T23:13:13.299Z,17.90
2018-08-19T23:15:42.512Z,18.13
2018-08-19T23:18:11.940Z,17.33
2018-08-19T23:20:41.232Z,17.43
2018-08-19T23:23:10.476Z,17.27
2018-08-19T23:25:39.600Z,17.50
2018-08-19T23:28:08.888Z,17.60
2018-08-19T23:30:38.089Z,17.17
2018-08-19T23:33:07.359Z,17.53
2018-08-19T23:35:36.562Z,17.93
2018-08-19T23:38:05.791Z,17.37
2018-08-19T23:40:35.052Z,17.00
2018-08-19T23:43:04.273Z,17.67
2018-08-19T23:45:34.111Z,18.33
2018-08-19T23:48:03.745Z,17.90
2018-08-19T23:50:32.934Z,17.90
2018-08-19T23:53:02.193Z,17.33
2018-08-19T23:55:31.384Z,17.60
2018-08-19T23:58:02.434Z,17.63
